KGIF/GIF METAR and TAF weather

Enter ICAO airport designator
Station Type Date Time Source
KGIF METAR 2021/07/28 03:53 UTC NOAA

KGIF 280353Z AUTO 15003KT 9SM CLR 26/24 A3005 RMK AO2 SLP171 T02610244


Station Type Date Time Source
KGIF Decoded METAR 2021/07/28 03:53 UTC NOAA

WINTER HAVENS GILBERT AIRPORT , FL, United States (KGIF) 28-04N 81-45W 43M
Jul 27, 2021 - 11:53 PM EDT / 2021.07.28 0353 UTC
Wind: from the SSE (150 degrees) at 3 MPH (3 KT):0
Visibility: 9 mile(s):0
Sky conditions: clear
Temperature: 79.0 F (26.1 C)
Dew Point: 75.9 F (24.4 C)
Relative Humidity: 90%
Pressure (altimeter): 30.05 in. Hg (1017 hPa)
ob: KGIF 280353Z AUTO 15003KT 9SM CLR 26/24 A3005 RMK AO2 SLP171 T02610244
cycle: 4

Station Type Date Time Source
KGIF TAF UTC NOAA

Error!

Example: see airport list